Time;durP1;ratioP1;P1;durP2;ratioP2;P2;SDS_P1;SDS_P2;PMS_P1;PMS_P2;Temp;Humidity;BMP_temperature;BMP_pressure;BME280_temperature;BME280_humidity;BME280_pressure;Samples;Min_cycle;Max_cycle;Signal;HPM_P1;HPM_P2
2023/05/03 00:00:52;;;;;;;7.18;1.80;;;18.60;42.40;;;;;;6050056;29;20041;-73
2023/05/03 00:04:01;;;;;;;3.45;1.63;;;18.60;42.50;;;;;;6051551;29;20037;-73
2023/05/03 00:07:09;;;;;;;2.60;1.75;;;18.60;42.60;;;;;;6051542;29;20378;-73
2023/05/03 00:10:23;;;;;;;1.52;1.35;;;18.50;42.70;;;;;;6050227;29;20040;-72
2023/05/03 00:13:30;;;;;;;1.92;1.73;;;18.50;42.70;;;;;;6051889;29;20061;-71
2023/05/03 00:16:37;;;;;;;2.35;1.58;;;18.40;42.90;;;;;;6051459;29;20093;-71
2023/05/03 00:19:54;;;;;;;1.67;1.58;;;18.40;43.40;;;;;;6049834;29;20029;-73
2023/05/03 00:23:00;;;;;;;3.33;1.40;;;18.30;43.30;;;;;;6051709;29;20535;-72
2023/05/03 00:26:10;;;;;;;3.40;1.70;;;18.30;43.50;;;;;;6049702;29;20040;-72
2023/05/03 00:29:21;;;;;;;2.10;1.48;;;18.30;43.80;;;;;;6049188;29;20041;-72
2023/05/03 00:32:34;;;;;;;3.70;1.67;;;18.20;44.10;;;;;;6049597;29;20025;-72
2023/05/03 00:35:45;;;;;;;4.10;1.65;;;18.20;44.70;;;;;;6051325;29;20085;-71
2023/05/03 00:38:55;;;;;;;2.88;1.60;;;18.10;44.50;;;;;;6049606;29;20100;-73
2023/05/03 00:42:06;;;;;;;5.82;1.92;;;18.00;45.00;;;;;;6050665;29;20033;-72
2023/05/03 00:45:22;;;;;;;3.00;1.67;;;18.00;45.10;;;;;;6051032;29;20040;-73
2023/05/03 00:48:30;;;;;;;2.10;1.70;;;18.00;45.20;;;;;;6049096;29;20040;-70
2023/05/03 00:51:37;;;;;;;3.05;1.75;;;17.90;45.50;;;;;;6069298;29;20530;-72
2023/05/03 00:54:58;;;;;;;3.13;1.67;;;17.90;45.60;;;;;;6062910;29;20025;-72
2023/05/03 00:58:07;;;;;;;3.22;1.58;;;17.80;45.70;;;;;;6050390;29;20037;-71
2023/05/03 01:01:15;;;;;;;3.95;1.85;;;17.80;45.80;;;;;;6048954;29;20040;-71
2023/05/03 01:04:29;;;;;;;2.15;1.67;;;17.70;46.00;;;;;;6048879;29;20131;-71
2023/05/03 01:07:46;;;;;;;4.25;2.10;;;17.70;46.50;;;;;;6050011;29;20043;-71
2023/05/03 01:11:30;;;;;;;3.03;1.90;;;17.70;46.90;;;;;;6048539;29;20120;-71
2023/05/03 01:15:10;;;;;;;2.38;1.70;;;17.60;46.80;;;;;;6000637;29;20128;-71
2023/05/03 01:18:31;;;;;;;4.78;1.75;;;17.60;46.60;;;;;;5985975;29;20046;-73
2023/05/03 01:21:42;;;;;;;3.17;1.52;;;17.40;46.50;;;;;;5972312;29;20038;-73
2023/05/03 01:24:51;;;;;;;10.25;1.83;;;17.30;46.70;;;;;;5955833;29;20050;-72
2023/05/03 01:28:02;;;;;;;4.43;1.60;;;17.20;46.70;;;;;;5940674;29;20053;-71
2023/05/03 01:31:10;;;;;;;4.25;1.80;;;17.10;46.80;;;;;;5955661;29;20050;-72
2023/05/03 01:34:24;;;;;;;7.53;1.95;;;17.10;46.90;;;;;;5974586;29;20046;-72
2023/05/03 01:37:35;;;;;;;3.42;1.83;;;17.10;47.00;;;;;;5979975;29;20073;-72
2023/05/03 01:41:02;;;;;;;12.63;2.17;;;17.10;47.00;;;;;;5983530;29;20125;-71
2023/05/03 01:44:15;;;;;;;3.35;1.85;;;17.10;47.10;;;;;;5980912;29;20081;-71
2023/05/03 01:47:29;;;;;;;2.80;1.73;;;17.00;47.20;;;;;;5978401;29;20050;-73
2023/05/03 01:50:36;;;;;;;2.55;1.65;;;17.00;47.40;;;;;;5986859;29;20046;-73
2023/05/03 01:53:47;;;;;;;6.30;2.20;;;16.90;47.50;;;;;;6043536;29;20092;-72
2023/05/03 01:56:54;;;;;;;4.05;2.03;;;16.90;47.80;;;;;;6026946;29;20120;-72
2023/05/03 02:00:01;;;;;;;3.60;2.10;;;16.90;47.80;;;;;;6026661;29;20124;-70
2023/05/03 02:03:24;;;;;;;5.88;2.17;;;16.90;48.10;;;;;;6026599;29;20049;-73
2023/05/03 02:06:33;;;;;;;4.65;1.90;;;16.80;48.20;;;;;;6025286;29;20041;-72
2023/05/03 02:09:41;;;;;;;10.80;2.30;;;16.70;48.30;;;;;;6026071;29;20040;-72
2023/05/03 02:12:55;;;;;;;2.90;1.92;;;16.70;48.60;;;;;;6026650;29;20494;-72
2023/05/03 02:16:04;;;;;;;2.45;1.73;;;16.70;48.70;;;;;;6025360;29;20134;-73
2023/05/03 02:19:12;;;;;;;6.65;1.80;;;16.60;48.70;;;;;;6024797;29;20041;-71
2023/05/03 02:22:27;;;;;;;8.82;2.22;;;16.60;48.70;;;;;;6025240;29;20036;-71
2023/05/03 02:25:34;;;;;;;4.90;2.15;;;16.60;48.90;;;;;;6026637;29;20120;-71
2023/05/03 02:28:39;;;;;;;10.00;2.50;;;16.60;49.00;;;;;;6024940;29;20101;-71
2023/05/03 02:31:47;;;;;;;2.60;1.98;;;16.50;49.20;;;;;;6026358;29;20717;-72
2023/05/03 02:34:58;;;;;;;2.33;1.90;;;16.50;49.40;;;;;;6027766;29;20033;-71
2023/05/03 02:38:09;;;;;;;3.63;2.10;;;16.50;49.50;;;;;;6029058;29;20040;-71
2023/05/03 02:41:24;;;;;;;3.13;2.05;;;16.40;49.60;;;;;;6030306;29;20434;-72
2023/05/03 02:44:39;;;;;;;5.85;2.28;;;16.40;49.70;;;;;;6025594;29;20041;-71
2023/05/03 02:47:46;;;;;;;4.30;2.28;;;16.40;49.80;;;;;;6026212;29;20033;-71
2023/05/03 02:51:01;;;;;;;6.90;2.40;;;16.40;50.00;;;;;;6026446;29;20089;-71
2023/05/03 02:54:12;;;;;;;3.10;2.13;;;16.40;50.30;;;;;;6003325;29;20040;-72
2023/05/03 02:57:18;;;;;;;3.72;2.25;;;16.30;50.40;;;;;;6003168;29;20038;-72
2023/05/03 03:00:30;;;;;;;5.70;1.95;;;16.30;50.90;;;;;;6018929;29;20030;-73
2023/05/03 03:03:38;;;;;;;4.43;1.92;;;16.30;51.20;;;;;;6026278;29;20044;-73
2023/05/03 03:06:48;;;;;;;2.38;1.80;;;16.20;51.20;;;;;;6030527;29;20037;-72
2023/05/03 03:09:57;;;;;;;4.30;1.95;;;16.20;51.10;;;;;;6029839;29;20458;-72
2023/05/03 03:13:11;;;;;;;8.40;2.40;;;16.20;51.10;;;;;;6030052;29;20037;-72
2023/05/03 03:16:18;;;;;;;6.07;2.25;;;16.10;51.20;;;;;;6028323;29;20029;-71
2023/05/03 03:19:27;;;;;;;2.72;1.83;;;16.10;51.20;;;;;;6029893;29;20055;-71
2023/05/03 03:22:36;;;;;;;9.15;2.65;;;16.00;51.30;;;;;;6028868;29;20049;-72
2023/05/03 03:25:47;;;;;;;5.60;2.25;;;16.00;51.30;;;;;;6029890;29;20085;-71
2023/05/03 03:28:54;;;;;;;3.17;2.25;;;16.00;51.30;;;;;;6027938;29;20116;-71
2023/05/03 03:32:10;;;;;;;5.22;2.45;;;16.00;51.30;;;;;;6029545;29;20041;-72
2023/05/03 03:35:18;;;;;;;5.20;2.20;;;15.90;51.30;;;;;;6028103;29;20097;-71
2023/05/03 03:38:34;;;;;;;6.75;2.15;;;15.90;51.30;;;;;;6027807;29;20060;-72
2023/05/03 03:41:49;;;;;;;2.38;1.92;;;15.90;51.30;;;;;;6029283;29;20120;-72
2023/05/03 03:44:59;;;;;;;2.63;2.13;;;15.90;51.50;;;;;;6027800;29;20455;-70
2023/05/03 03:48:08;;;;;;;3.30;2.03;;;15.80;51.50;;;;;;6027781;29;20037;-72
2023/05/03 03:51:16;;;;;;;2.08;1.73;;;15.80;51.50;;;;;;6029807;29;20041;-72
2023/05/03 03:54:24;;;;;;;3.30;2.28;;;15.70;51.40;;;;;;6044087;29;20018;-72
2023/05/03 03:57:35;;;;;;;4.28;2.13;;;15.70;51.50;;;;;;6028701;29;20033;-72
2023/05/03 04:00:46;;;;;;;3.70;2.20;;;15.70;51.70;;;;;;6028921;29;20116;-72
2023/05/03 04:03:54;;;;;;;6.97;2.58;;;15.60;51.80;;;;;;6028865;29;20116;-73
2023/05/03 04:07:03;;;;;;;7.18;2.40;;;15.60;52.00;;;;;;6029178;29;20041;-70
2023/05/03 04:10:15;;;;;;;2.65;2.10;;;15.50;52.10;;;;;;6027451;29;20072;-72
2023/05/03 04:13:29;;;;;;;4.60;2.05;;;15.50;52.10;;;;;;6028744;29;20045;-72
2023/05/03 04:16:41;;;;;;;7.63;2.45;;;15.40;52.20;;;;;;6027973;29;20543;-71
2023/05/03 04:19:54;;;;;;;7.47;2.38;;;15.40;52.30;;;;;;6027027;29;20157;-72
2023/05/03 04:23:08;;;;;;;3.47;2.30;;;15.40;52.40;;;;;;6012327;29;20077;-73
2023/05/03 04:26:21;;;;;;;3.25;1.92;;;15.30;52.40;;;;;;6042406;29;20293;-72
2023/05/03 04:29:31;;;;;;;4.30;2.30;;;15.30;52.40;;;;;;6028345;29;20037;-72
2023/05/03 04:32:39;;;;;;;4.43;2.33;;;15.30;52.50;;;;;;6022370;29;20082;-72
2023/05/03 04:35:54;;;;;;;5.80;2.33;;;15.30;52.50;;;;;;6004517;29;20044;-71
2023/05/03 04:38:59;;;;;;;3.33;2.13;;;15.30;52.50;;;;;;6005166;29;20065;-72
2023/05/03 04:42:19;;;;;;;8.95;2.58;;;15.30;52.50;;;;;;6005228;29;20120;-72
2023/05/03 04:45:30;;;;;;;11.20;2.78;;;15.20;52.50;;;;;;6005014;29;20058;-72
2023/05/03 04:48:41;;;;;;;8.95;2.70;;;15.20;52.50;;;;;;6004938;29;20034;-71
2023/05/03 04:51:51;;;;;;;6.30;2.97;;;15.20;52.50;;;;;;6018578;29;20652;-72
2023/05/03 04:54:58;;;;;;;9.00;3.72;;;15.20;52.60;;;;;;6049617;29;20140;-71
2023/05/03 04:58:06;;;;;;;9.23;3.95;;;15.30;52.70;;;;;;6050224;29;20044;-72
2023/05/03 05:01:13;;;;;;;9.18;4.28;;;15.20;52.80;;;;;;6050513;29;20036;-71
2023/05/03 05:04:25;;;;;;;11.73;4.95;;;15.10;52.90;;;;;;6050276;29;20116;-71
2023/05/03 05:07:33;;;;;;;10.90;4.38;;;15.20;53.20;;;;;;6036805;29;20030;-71
2023/05/03 05:10:45;;;;;;;10.10;5.20;;;15.00;53.30;;;;;;6025483;29;20037;-73
2023/05/03 05:14:00;;;;;;;13.57;4.35;;;15.00;53.60;;;;;;6026877;29;20064;-73
2023/05/03 05:17:08;;;;;;;10.85;4.72;;;15.00;53.70;;;;;;6026542;29;20108;-72
2023/05/03 05:20:15;;;;;;;12.57;4.47;;;15.00;53.80;;;;;;6003759;29;20045;-72
2023/05/03 05:23:29;;;;;;;9.55;4.55;;;15.00;53.90;;;;;;5989474;29;20038;-71
2023/05/03 05:26:35;;;;;;;9.82;4.65;;;15.00;54.10;;;;;;6005261;29;20078;-71
2023/05/03 05:29:47;;;;;;;6.57;4.10;;;15.00;54.20;;;;;;6004391;29;20034;-72
2023/05/03 05:32:56;;;;;;;8.02;4.35;;;15.10;54.40;;;;;;6004346;29;20041;-72
2023/05/03 05:36:03;;;;;;;10.68;4.00;;;15.00;54.30;;;;;;6005920;29;20033;-73
2023/05/03 05:39:16;;;;;;;7.57;4.72;;;15.10;54.30;;;;;;6003793;29;20041;-74
2023/05/03 05:42:21;;;;;;;8.77;4.03;;;15.20;54.30;;;;;;6002211;29;20038;-73
2023/05/03 05:45:33;;;;;;;6.65;3.83;;;15.20;54.30;;;;;;6001838;29;20071;-71
2023/05/03 05:48:39;;;;;;;;;;;15.30;54.40;;;;;;6014201;29;20040;-70
2023/05/03 05:51:48;;;;;;;9.80;3.60;;;15.30;54.30;;;;;;6031104;29;19915;-71
2023/05/03 05:54:58;;;;;;;6.82;3.50;;;15.40;54.20;;;;;;6038813;29;20035;-72
2023/05/03 05:58:06;;;;;;;;;;;15.40;54.30;;;;;;6025660;29;20063;-71
2023/05/03 06:01:25;;;;;;;6.90;3.42;;;15.50;54.30;;;;;;6026366;29;19912;-73
2023/05/03 06:04:34;;;;;;;10.23;3.92;;;15.50;54.10;;;;;;6026322;29;20165;-71
2023/05/03 06:07:47;;;;;;;9.23;3.92;;;15.60;54.10;;;;;;6026394;29;20114;-71
2023/05/03 06:10:57;;;;;;;6.82;3.40;;;15.70;54.00;;;;;;6026645;29;20173;-73
2023/05/03 06:14:08;;;;;;;9.55;3.40;;;15.80;53.90;;;;;;6024684;29;20566;-73
2023/05/03 06:17:24;;;;;;;5.35;3.50;;;15.80;53.80;;;;;;6025815;29;20041;-72
2023/05/03 06:20:30;;;;;;;5.53;3.83;;;15.80;53.60;;;;;;6024637;29;20078;-72
2023/05/03 06:23:38;;;;;;;11.20;3.70;;;15.90;53.60;;;;;;6024585;29;20041;-70
2023/05/03 06:26:49;;;;;;;5.53;3.50;;;15.90;53.60;;;;;;6024762;29;20120;-72
2023/05/03 06:29:57;;;;;;;5.97;3.47;;;16.00;53.50;;;;;;6024932;29;20076;-71
2023/05/03 06:33:04;;;;;;;5.57;3.53;;;16.10;53.40;;;;;;6025896;29;20097;-72
2023/05/03 06:36:08;;;;;;;5.57;3.00;;;16.30;53.20;;;;;;6026131;29;20041;-71
2023/05/03 06:39:19;;;;;;;5.78;3.47;;;16.40;52.90;;;;;;6025589;29;20163;-71
2023/05/03 06:42:32;;;;;;;7.63;2.88;;;16.50;52.70;;;;;;6028804;29;20037;-72
2023/05/03 06:45:46;;;;;;;5.53;3.13;;;16.60;52.60;;;;;;6030260;29;20039;-73
2023/05/03 06:48:57;;;;;;;14.38;3.42;;;16.70;52.40;;;;;;6029800;29;20188;-71
2023/05/03 06:52:07;;;;;;;4.57;3.08;;;16.80;52.30;;;;;;6038904;29;20037;-73
2023/05/03 06:55:16;;;;;;;8.05;3.58;;;16.90;52.10;;;;;;6052618;29;20128;-72
2023/05/03 06:58:30;;;;;;;10.70;3.78;;;16.90;52.00;;;;;;6050838;29;20386;-72
2023/05/03 07:01:36;;;;;;;5.40;3.08;;;17.00;52.00;;;;;;6028375;29;20116;-72
2023/05/03 07:04:42;;;;;;;6.15;2.80;;;17.10;51.90;;;;;;6030310;29;20096;-71
2023/05/03 07:07:52;;;;;;;5.45;2.80;;;17.20;51.80;;;;;;6030026;29;20034;-72
2023/05/03 07:11:03;;;;;;;10.13;3.30;;;17.30;51.40;;;;;;6028418;29;20029;-72
2023/05/03 07:14:10;;;;;;;12.65;3.25;;;17.40;51.30;;;;;;6029987;29;20066;-75
2023/05/03 07:17:16;;;;;;;6.00;2.75;;;17.50;51.20;;;;;;6028785;29;20022;-73
2023/05/03 07:20:27;;;;;;;4.85;2.90;;;17.60;51.00;;;;;;6028635;29;20675;-72
2023/05/03 07:23:36;;;;;;;6.45;3.40;;;17.70;50.80;;;;;;6030332;29;20033;-73
2023/05/03 07:26:41;;;;;;;5.53;2.67;;;17.90;50.60;;;;;;6030507;29;20097;-73
2023/05/03 07:29:52;;;;;;;4.20;3.03;;;18.10;50.40;;;;;;6029091;29;20679;-73
2023/05/03 07:33:00;;;;;;;9.95;3.60;;;18.40;50.00;;;;;;6028948;29;20041;-73
2023/05/03 07:36:08;;;;;;;5.35;3.35;;;18.60;49.60;;;;;;6030332;29;20129;-72
2023/05/03 07:39:17;;;;;;;6.38;4.00;;;18.70;49.00;;;;;;6028850;29;20187;-71
2023/05/03 07:42:45;;;;;;;6.05;3.45;;;18.80;49.00;;;;;;6008059;29;20050;-74
2023/05/03 07:45:54;;;;;;;5.50;3.13;;;18.90;48.90;;;;;;6005420;29;20139;-72
2023/05/03 07:49:04;;;;;;;7.50;3.53;;;19.00;48.70;;;;;;6006851;29;20061;-73
2023/05/03 07:52:16;;;;;;;10.15;3.70;;;19.10;48.30;;;;;;6025567;29;20215;-72
2023/05/03 07:55:25;;;;;;;9.95;3.67;;;19.20;48.10;;;;;;6052074;29;20132;-73
2023/05/03 07:58:33;;;;;;;10.13;3.53;;;19.30;47.90;;;;;;6050764;29;20120;-74
2023/05/03 08:01:41;;;;;;;8.63;3.42;;;19.50;47.60;;;;;;6053183;29;20065;-71
2023/05/03 08:04:46;;;;;;;6.47;2.65;;;19.60;47.30;;;;;;6051345;29;20037;-72
2023/05/03 08:07:59;;;;;;;4.18;2.58;;;19.80;47.00;;;;;;6036003;29;20053;-71
2023/05/03 08:11:08;;;;;;;5.45;3.30;;;19.90;46.30;;;;;;6028711;29;20048;-73
2023/05/03 08:14:16;;;;;;;7.22;3.75;;;20.00;46.10;;;;;;6030270;29;20117;-73
2023/05/03 08:17:28;;;;;;;5.53;3.25;;;20.10;46.10;;;;;;6028250;29;20033;-73
2023/05/03 08:20:36;;;;;;;5.47;2.45;;;20.30;45.80;;;;;;6027965;29;20117;-71
2023/05/03 08:23:44;;;;;;;6.03;3.13;;;20.30;45.30;;;;;;6029241;29;20037;-73
2023/05/03 08:26:52;;;;;;;5.15;3.28;;;20.40;45.40;;;;;;6012491;29;20041;-73
2023/05/03 08:30:02;;;;;;;4.35;2.50;;;20.60;45.10;;;;;;6028451;29;20072;-72
2023/05/03 08:33:10;;;;;;;6.05;2.97;;;20.60;44.70;;;;;;6018218;29;20129;-73
2023/05/03 08:36:18;;;;;;;5.05;2.60;;;20.70;44.70;;;;;;6008704;29;20043;-73
2023/05/03 08:39:32;;;;;;;4.88;2.80;;;20.80;44.40;;;;;;6028356;29;20041;-74
2023/05/03 08:42:44;;;;;;;4.80;2.78;;;20.90;44.30;;;;;;6026987;29;20037;-73
2023/05/03 08:46:02;;;;;;;4.88;3.08;;;21.00;44.00;;;;;;6027341;29;20131;-75
2023/05/03 08:49:20;;;;;;;3.03;1.98;;;21.10;43.60;;;;;;6026848;29;20168;-73
2023/05/03 08:52:29;;;;;;;3.63;2.30;;;21.10;42.80;;;;;;6026511;29;20039;-74
2023/05/03 08:55:35;;;;;;;3.67;2.35;;;21.00;42.60;;;;;;6028435;29;20029;-72
2023/05/03 08:58:43;;;;;;;4.20;2.67;;;21.10;42.70;;;;;;6011234;29;20073;-72
2023/05/03 09:01:54;;;;;;;4.28;2.47;;;21.10;42.70;;;;;;6026129;29;20378;-73
2023/05/03 09:05:04;;;;;;;5.10;3.00;;;21.20;42.70;;;;;;6027581;29;20033;-75
2023/05/03 09:08:15;;;;;;;4.35;2.72;;;21.30;42.50;;;;;;6026345;29;20030;-73
2023/05/03 09:11:28;;;;;;;7.50;3.13;;;21.40;41.90;;;;;;6041725;29;20045;-72
2023/05/03 09:14:43;;;;;;;5.65;2.70;;;21.40;41.90;;;;;;6027397;29;20029;-73
2023/05/03 09:18:11;;;;;;;5.90;2.07;;;21.60;41.90;;;;;;6027425;29;20029;-73
2023/05/03 09:21:22;;;;;;;3.42;2.20;;;21.70;41.60;;;;;;6028006;29;20254;-73
2023/05/03 09:24:34;;;;;;;10.35;3.85;;;21.80;41.40;;;;;;6041220;29;20140;-72
2023/05/03 09:27:41;;;;;;;20.63;3.40;;;21.90;41.20;;;;;;6025688;29;20037;-72
2023/05/03 09:30:52;;;;;;;2.97;2.10;;;22.00;41.10;;;;;;6027295;29;20344;-73
2023/05/03 09:33:57;;;;;;;4.63;2.70;;;22.00;40.40;;;;;;6010123;29;20037;-73
2023/05/03 09:37:02;;;;;;;4.45;2.80;;;22.00;40.30;;;;;;6027651;29;20157;-74
2023/05/03 09:40:16;;;;;;;3.33;2.00;;;22.10;40.30;;;;;;6027396;29;20072;-75
2023/05/03 09:43:29;;;;;;;8.23;2.47;;;22.10;40.10;;;;;;6026229;29;20121;-72
2023/05/03 09:46:36;;;;;;;5.20;2.03;;;22.20;40.00;;;;;;6027141;29;20214;-75
2023/05/03 09:49:47;;;;;;;2.47;2.08;;;22.30;39.90;;;;;;6026986;29;20065;-73
2023/05/03 09:52:55;;;;;;;11.45;2.40;;;22.40;39.80;;;;;;6011742;29;20033;-74
2023/05/03 09:56:08;;;;;;;5.77;2.27;;;22.40;39.60;;;;;;6028195;29;20279;-74
2023/05/03 09:59:16;;;;;;;13.93;2.50;;;22.60;39.40;;;;;;6026701;29;20053;-73
2023/05/03 10:02:31;;;;;;;3.95;2.70;;;22.60;39.10;;;;;;6026676;29;20038;-74
2023/05/03 10:05:53;;;;;;;7.70;3.08;;;22.70;38.90;;;;;;6025367;29;20034;-73
2023/05/03 10:09:03;;;;;;;4.90;2.10;;;22.70;38.60;;;;;;6040710;29;20096;-73
2023/05/03 10:12:16;;;;;;;9.43;2.22;;;22.70;38.70;;;;;;6039748;29;20033;-73
2023/05/03 10:15:26;;;;;;;2.17;1.83;;;22.80;38.70;;;;;;6029624;29;20037;-73
2023/05/03 10:18:34;;;;;;;9.35;2.40;;;22.90;38.90;;;;;;6045131;29;20029;-73
2023/05/03 10:22:11;;;;;;;2.85;1.80;;;23.00;37.50;;;;;;6031074;29;20219;-74
2023/05/03 10:25:23;;;;;;;3.63;1.95;;;23.00;37.20;;;;;;6029306;29;20044;-74
2023/05/03 10:28:34;;;;;;;2.65;1.80;;;23.00;37.40;;;;;;6013748;29;20037;-73
2023/05/03 10:31:52;;;;;;;2.75;1.67;;;23.20;37.60;;;;;;6014178;29;20042;-73
2023/05/03 10:35:18;;;;;;;6.47;2.00;;;23.30;37.40;;;;;;6006240;29;20034;-74
2023/05/03 10:38:30;;;;;;;5.22;1.92;;;23.40;36.90;;;;;;6005860;29;20102;-74
2023/05/03 10:41:40;;;;;;;3.05;1.70;;;23.50;36.50;;;;;;6006605;29;20041;-73
2023/05/03 10:44:54;;;;;;;2.28;1.70;;;23.60;36.30;;;;;;6017457;29;20090;-75
2023/05/03 10:48:19;;;;;;;4.20;1.60;;;23.60;36.10;;;;;;6032738;29;20093;-75
2023/05/03 10:51:35;;;;;;;2.72;1.80;;;23.70;35.80;;;;;;6035361;29;20033;-76
2023/05/03 10:54:44;;;;;;;3.10;2.03;;;24.10;35.10;;;;;;6044040;29;20096;-76
2023/05/03 10:57:57;;;;;;;4.05;2.08;;;24.70;34.30;;;;;;6030074;29;20068;-73
2023/05/03 11:01:05;;;;;;;13.13;2.22;;;25.20;33.50;;;;;;6028265;29;20109;-74
2023/05/03 11:04:50;;;;;;;3.25;1.90;;;25.90;32.90;;;;;;6043601;29;20052;-73
2023/05/03 11:08:20;;;;;;;4.57;2.22;;;26.50;32.20;;;;;;6027566;29;20042;-72
2023/05/03 11:11:28;;;;;;;2.63;1.90;;;27.20;31.50;;;;;;6027966;29;20044;-73
2023/05/03 11:14:36;;;;;;;2.42;2.00;;;27.70;31.00;;;;;;6043766;29;20060;-74
2023/05/03 11:17:44;;;;;;;3.42;1.70;;;28.00;30.60;;;;;;6028226;29;20420;-73
2023/05/03 11:20:55;;;;;;;6.95;2.00;;;28.20;30.20;;;;;;6027704;29;20041;-75
2023/05/03 11:24:03;;;;;;;6.78;3.13;;;28.50;30.00;;;;;;6029465;29;20140;-73
2023/05/03 11:27:27;;;;;;;2.42;2.00;;;28.90;29.80;;;;;;6028003;29;20030;-74
2023/05/03 11:30:36;;;;;;;2.50;1.90;;;29.20;29.20;;;;;;6029325;29;20077;-74
2023/05/03 11:33:45;;;;;;;9.98;2.70;;;29.40;28.80;;;;;;6029610;29;20045;-73
2023/05/03 11:36:58;;;;;;;12.30;2.00;;;29.50;28.30;;;;;;6043456;29;20100;-73
2023/05/03 11:40:03;;;;;;;7.80;1.98;;;29.60;28.10;;;;;;6029145;29;20029;-73
2023/05/03 11:43:10;;;;;;;2.80;1.40;;;29.60;28.00;;;;;;6027531;29;20105;-73
2023/05/03 11:46:23;;;;;;;1.77;1.63;;;29.50;27.80;;;;;;6028925;29;20089;-74
2023/05/03 11:49:33;;;;;;;2.33;1.63;;;29.60;27.60;;;;;;6028637;29;20208;-74
2023/05/03 11:52:39;;;;;;;4.70;2.05;;;29.80;27.50;;;;;;6024504;29;20162;-74
2023/05/03 11:55:57;;;;;;;8.45;1.63;;;30.00;27.60;;;;;;6034962;29;20058;-74
2023/05/03 11:59:06;;;;;;;5.70;1.50;;;30.20;27.60;;;;;;6027317;29;20047;-74
2023/05/03 12:02:17;;;;;;;2.70;1.60;;;30.50;27.50;;;;;;6029686;29;20033;-76
2023/05/03 12:05:31;;;;;;;1.92;1.65;;;31.00;27.30;;;;;;6028161;29;20492;-74
2023/05/03 12:08:35;;;;;;;;;;;31.10;26.90;;;;;;6029704;29;20036;-72
2023/05/03 12:11:44;;;;;;;3.10;2.10;;;31.20;26.60;;;;;;6028092;29;20011;-73
2023/05/03 12:15:04;;;;;;;5.15;1.98;;;31.20;26.50;;;;;;6027629;29;20033;-73
2023/05/03 12:18:13;;;;;;;3.50;1.65;;;31.50;26.40;;;;;;6028783;29;20116;-74
2023/05/03 12:21:26;;;;;;;2.05;1.88;;;31.80;26.00;;;;;;6026942;29;20045;-73
2023/05/03 12:24:34;;;;;;;1.50;1.40;;;32.30;25.80;;;;;;6027199;29;20366;-72
2023/05/03 12:27:40;;;;;;;3.30;1.80;;;32.90;25.30;;;;;;6027131;29;20037;-72
2023/05/03 12:30:50;;;;;;;1.77;1.50;;;33.10;24.70;;;;;;6026877;29;20037;-73
2023/05/03 12:33:58;;;;;;;3.95;1.88;;;33.40;24.30;;;;;;6019120;29;20034;-73
2023/05/03 12:37:33;;;;;;;3.60;1.38;;;33.80;24.10;;;;;;6007673;29;20034;-72
2023/05/03 12:41:00;;;;;;;3.25;1.58;;;34.20;23.80;;;;;;6008535;29;20029;-73
2023/05/03 12:44:15;;;;;;;6.25;1.70;;;34.60;23.20;;;;;;6006973;29;20048;-74
2023/05/03 12:47:51;;;;;;;;;;;;;;;;;;;;;
2023/05/03 12:50:59;;;;;;;1.70;1.60;;;35.40;22.80;;;;;;6031759;29;20513;-75
2023/05/03 12:54:45;;;;;;;1.90;1.40;;;36.00;22.10;;;;;;6025850;29;20084;-74
2023/05/03 12:58:43;;;;;;;1.77;1.40;;;36.50;21.70;;;;;;6029175;29;20045;-74
2023/05/03 13:01:50;;;;;;;2.38;1.58;;;37.10;21.00;;;;;;6030415;29;20041;-73
2023/05/03 13:04:58;;;;;;;1.60;1.50;;;37.50;20.50;;;;;;6029676;29;20053;-74
2023/05/03 13:08:05;;;;;;;2.05;1.58;;;37.80;20.40;;;;;;6010506;29;20044;-73
2023/05/03 13:11:13;;;;;;;1.73;1.45;;;38.10;19.90;;;;;;6027560;29;20081;-75
2023/05/03 13:14:25;;;;;;;;;;;38.60;19.90;;;;;;6026332;29;20037;-74
2023/05/03 13:17:34;;;;;;;2.50;1.30;;;39.10;19.40;;;;;;6027546;29;19911;-73
2023/05/03 13:20:44;;;;;;;2.92;1.30;;;39.30;18.90;;;;;;6026265;29;20055;-73
2023/05/03 13:23:50;;;;;;;1.67;1.42;;;39.80;18.70;;;;;;6027420;29;20112;-73
2023/05/03 13:26:59;;;;;;;6.80;1.50;;;40.70;18.40;;;;;;6027440;29;20065;-73
2023/05/03 13:30:11;;;;;;;3.72;1.40;;;41.50;17.70;;;;;;6024724;29;20037;-74
2023/05/03 13:33:17;;;;;;;0.95;0.95;;;41.90;17.20;;;;;;6027338;29;20034;-73
2023/05/03 13:36:32;;;;;;;1.58;1.17;;;42.40;16.80;;;;;;6027940;29;20066;-72
2023/05/03 13:39:47;;;;;;;2.70;1.42;;;42.70;16.20;;;;;;6028706;29;20056;-73
2023/05/03 13:42:55;;;;;;;2.03;1.30;;;42.50;16.30;;;;;;6028539;29;20120;-73
2023/05/03 13:46:16;;;;;;;1.75;1.60;;;42.30;16.10;;;;;;6027096;29;20042;-73
2023/05/03 13:49:23;;;;;;;1.88;1.10;;;41.80;16.00;;;;;;6025695;29;20033;-72
2023/05/03 13:52:33;;;;;;;3.38;1.10;;;42.00;16.10;;;;;;6008233;29;20052;-73
2023/05/03 13:55:40;;;;;;;1.30;1.20;;;42.10;15.90;;;;;;6031891;29;20074;-72
2023/05/03 13:58:45;;;;;;;2.15;1.20;;;42.00;15.90;;;;;;6026497;29;20056;-74
2023/05/03 14:01:58;;;;;;;2.90;1.10;;;42.10;15.70;;;;;;6025065;29;20041;-72
2023/05/03 14:05:14;;;;;;;1.02;0.93;;;42.20;15.70;;;;;;6025162;29;20041;-74
2023/05/03 14:08:20;;;;;;;1.50;1.40;;;42.30;15.50;;;;;;6024748;29;20072;-74
2023/05/03 14:11:26;;;;;;;2.90;1.10;;;42.40;15.50;;;;;;6025127;29;20040;-74
2023/05/03 14:14:36;;;;;;;2.15;1.00;;;42.40;15.40;;;;;;6026478;29;20065;-73
2023/05/03 14:17:50;;;;;;;2.50;1.52;;;42.20;15.40;;;;;;6010480;29;20196;-73
2023/05/03 14:20:58;;;;;;;8.20;1.38;;;42.40;15.50;;;;;;6026213;29;20033;-74
2023/05/03 14:24:11;;;;;;;1.38;1.27;;;42.80;15.50;;;;;;6026389;29;20041;-73
2023/05/03 14:27:20;;;;;;;2.85;1.27;;;43.00;15.20;;;;;;6026154;29;20045;-73
2023/05/03 14:30:30;;;;;;;3.72;1.45;;;42.90;15.10;;;;;;6024515;29;20112;-73
2023/05/03 14:33:40;;;;;;;4.72;1.35;;;42.90;15.30;;;;;;6017031;29;20038;-74
2023/05/03 14:36:51;;;;;;;1.15;1.05;;;42.40;15.20;;;;;;6003310;29;20066;-73
2023/05/03 14:39:57;;;;;;;1.92;1.30;;;41.10;16.00;;;;;;6005361;29;20117;-73
2023/05/03 14:43:04;;;;;;;2.55;1.40;;;39.50;16.90;;;;;;6026132;29;20093;-74
2023/05/03 14:46:18;;;;;;;1.70;1.30;;;37.80;17.80;;;;;;6026235;29;20116;-73
2023/05/03 14:49:39;;;;;;;2.40;1.55;;;36.40;18.80;;;;;;6025890;29;20188;-73
2023/05/03 14:52:48;;;;;;;3.45;1.98;;;35.20;19.60;;;;;;6039738;29;20037;-73
2023/05/03 14:55:56;;;;;;;1.60;1.40;;;34.20;20.60;;;;;;6030753;29;20042;-73
2023/05/03 14:59:08;;;;;;;4.80;1.35;;;33.20;21.30;;;;;;6024715;29;20033;-75
2023/05/03 15:02:23;;;;;;;1.40;1.25;;;32.50;22.20;;;;;;6029494;29;20052;-72
2023/05/03 15:05:30;;;;;;;3.50;1.48;;;31.80;22.90;;;;;;6029503;29;20045;-75
2023/05/03 15:08:38;;;;;;;2.55;1.42;;;31.10;23.60;;;;;;6028881;29;20489;-75
2023/05/03 15:12:11;;;;;;;1.85;1.27;;;30.70;24.20;;;;;;6029173;29;20412;-74
2023/05/03 15:15:21;;;;;;;2.72;1.45;;;30.20;24.60;;;;;;6031048;29;20112;-74
2023/05/03 15:18:30;;;;;;;;;;;29.90;25.10;;;;;;6030742;29;20036;-75
2023/05/03 15:21:53;;;;;;;;;;;29.70;25.40;;;;;;6029684;29;19915;-73
2023/05/03 15:25:02;;;;;;;1.88;1.52;;;29.60;25.70;;;;;;6029961;29;19911;-71
2023/05/03 15:28:13;;;;;;;2.13;1.40;;;29.60;25.80;;;;;;6029663;29;20818;-73
2023/05/03 15:31:22;;;;;;;5.65;1.60;;;30.50;25.50;;;;;;6027958;29;20034;-75
2023/05/03 15:34:31;;;;;;;4.68;1.70;;;32.20;24.20;;;;;;6029268;29;20177;-74
2023/05/03 15:37:43;;;;;;;2.13;1.95;;;33.90;23.00;;;;;;6028856;29;20025;-72
2023/05/03 15:40:55;;;;;;;5.20;1.77;;;35.40;21.70;;;;;;6029097;29;20066;-75
2023/05/03 15:44:04;;;;;;;1.67;1.50;;;36.60;20.80;;;;;;6029530;29;20033;-72
2023/05/03 15:47:15;;;;;;;3.50;1.70;;;37.50;20.00;;;;;;6042808;29;20056;-73
2023/05/03 15:50:25;;;;;;;1.80;1.20;;;38.20;19.60;;;;;;6028277;29;20038;-73
2023/05/03 15:53:34;;;;;;;3.83;1.50;;;38.80;19.10;;;;;;6043565;29;20200;-74
2023/05/03 15:56:43;;;;;;;2.00;1.47;;;39.10;18.70;;;;;;6029160;29;20109;-73
2023/05/03 15:59:54;;;;;;;1.80;1.25;;;39.50;18.50;;;;;;6028693;29;20064;-74
2023/05/03 16:03:09;;;;;;;3.80;1.42;;;40.00;18.20;;;;;;6030314;29;20034;-75
2023/05/03 16:06:20;;;;;;;2.42;1.38;;;40.20;18.00;;;;;;6032764;29;20060;-73
2023/05/03 16:09:31;;;;;;;1.55;1.35;;;40.50;17.70;;;;;;6031972;29;20041;-74
2023/05/03 16:12:41;;;;;;;2.70;1.48;;;40.30;17.50;;;;;;6028237;29;20037;-73
2023/05/03 16:15:55;;;;;;;2.13;1.38;;;39.90;17.80;;;;;;6027459;29;20442;-74
2023/05/03 16:19:00;;;;;;;2.85;1.40;;;39.40;18.00;;;;;;6028422;29;20038;-73
2023/05/03 16:22:11;;;;;;;2.17;1.30;;;39.30;18.10;;;;;;6028459;29;20447;-74
2023/05/03 16:25:29;;;;;;;5.20;1.50;;;39.30;18.10;;;;;;6029036;29;20029;-74
2023/05/03 16:28:34;;;;;;;1.77;1.38;;;38.50;18.40;;;;;;6028116;29;20086;-74
2023/05/03 16:31:45;;;;;;;2.00;1.30;;;37.20;19.40;;;;;;6028136;29;20033;-72
2023/05/03 16:34:54;;;;;;;2.85;1.30;;;35.70;20.40;;;;;;6025330;29;20034;-73
2023/05/03 16:38:02;;;;;;;4.25;1.50;;;34.40;21.40;;;;;;6027962;29;20120;-72